sensor_id;sensor_type;location;lat;lon;timestamp;temperature;humidity
46676;DHT22;32412;51.478;5.694;2023-04-29T00:00:52;10.30;99.90
46676;DHT22;32412;51.478;5.694;2023-04-29T00:03:18;10.30;99.90
46676;DHT22;32412;51.478;5.694;2023-04-29T00:05:44;10.30;99.90
46676;DHT22;32412;51.478;5.694;2023-04-29T00:08:10;10.20;99.90
46676;DHT22;32412;51.478;5.694;2023-04-29T00:10:36;10.20;99.90
46676;DHT22;32412;51.478;5.694;2023-04-29T00:13:02;10.20;99.90
46676;DHT22;32412;51.478;5.694;2023-04-29T00:15:28;10.30;99.90
46676;DHT22;32412;51.478;5.694;2023-04-29T00:17:53;10.20;99.90
46676;DHT22;32412;51.478;5.694;2023-04-29T00:20:20;10.20;99.90
46676;DHT22;32412;51.478;5.694;2023-04-29T00:22:45;10.20;99.90
46676;DHT22;32412;51.478;5.694;2023-04-29T00:25:11;10.20;99.90
46676;DHT22;32412;51.478;5.694;2023-04-29T00:27:37;10.10;99.90
46676;DHT22;32412;51.478;5.694;2023-04-29T00:30:05;10.10;99.90
46676;DHT22;32412;51.478;5.694;2023-04-29T00:32:32;10.00;99.90
46676;DHT22;32412;51.478;5.694;2023-04-29T00:34:58;10.00;99.90
46676;DHT22;32412;51.478;5.694;2023-04-29T00:37:23;10.00;99.90
46676;DHT22;32412;51.478;5.694;2023-04-29T00:39:49;10.00;99.90
46676;DHT22;32412;51.478;5.694;2023-04-29T00:42:15;10.00;99.90
46676;DHT22;32412;51.478;5.694;2023-04-29T00:44:41;10.00;99.90
46676;DHT22;32412;51.478;5.694;2023-04-29T00:47:06;9.90;99.90
46676;DHT22;32412;51.478;5.694;2023-04-29T00:49:37;9.90;99.90
46676;DHT22;32412;51.478;5.694;2023-04-29T00:52:03;9.90;99.90
46676;DHT22;32412;51.478;5.694;2023-04-29T00:54:29;9.80;99.90
46676;DHT22;32412;51.478;5.694;2023-04-29T00:56:55;9.70;99.90
46676;DHT22;32412;51.478;5.694;2023-04-29T00:59:21;9.70;99.90
46676;DHT22;32412;51.478;5.694;2023-04-29T01:01:47;9.70;99.90
46676;DHT22;32412;51.478;5.694;2023-04-29T01:04:13;9.70;99.90
46676;DHT22;32412;51.478;5.694;2023-04-29T01:06:55;9.60;99.90
46676;DHT22;32412;51.478;5.694;2023-04-29T01:09:37;9.50;99.90
46676;DHT22;32412;51.478;5.694;2023-04-29T01:14:32;9.60;99.90
46676;DHT22;32412;51.478;5.694;2023-04-29T01:17:00;9.60;99.90
46676;DHT22;32412;51.478;5.694;2023-04-29T01:19:49;9.60;99.90
46676;DHT22;32412;51.478;5.694;2023-04-29T01:22:15;9.60;99.90
46676;DHT22;32412;51.478;5.694;2023-04-29T01:24:43;9.60;99.90
46676;DHT22;32412;51.478;5.694;2023-04-29T01:30:00;9.60;99.90
46676;DHT22;32412;51.478;5.694;2023-04-29T01:35:33;9.60;99.90
46676;DHT22;32412;51.478;5.694;2023-04-29T01:38:16;9.60;99.90
46676;DHT22;32412;51.478;5.694;2023-04-29T01:41:04;9.50;99.90
46676;DHT22;32412;51.478;5.694;2023-04-29T01:43:32;9.50;99.90
46676;DHT22;32412;51.478;5.694;2023-04-29T01:45:58;9.50;99.90
46676;DHT22;32412;51.478;5.694;2023-04-29T01:48:25;9.50;99.90
46676;DHT22;32412;51.478;5.694;2023-04-29T01:50:51;9.50;99.90
46676;DHT22;32412;51.478;5.694;2023-04-29T01:53:17;9.50;99.90
46676;DHT22;32412;51.478;5.694;2023-04-29T01:55:42;9.50;99.90
46676;DHT22;32412;51.478;5.694;2023-04-29T01:58:09;9.50;99.90
46676;DHT22;32412;51.478;5.694;2023-04-29T02:00:35;9.50;99.90
46676;DHT22;32412;51.478;5.694;2023-04-29T02:03:02;9.40;99.90
46676;DHT22;32412;51.478;5.694;2023-04-29T02:05:28;9.40;99.90
46676;DHT22;32412;51.478;5.694;2023-04-29T02:07:58;9.40;99.90
46676;DHT22;32412;51.478;5.694;2023-04-29T02:10:24;9.40;99.90
46676;DHT22;32412;51.478;5.694;2023-04-29T02:12:49;9.40;99.90
46676;DHT22;32412;51.478;5.694;2023-04-29T02:15:15;9.50;99.90
46676;DHT22;32412;51.478;5.694;2023-04-29T02:17:44;9.50;99.90
46676;DHT22;32412;51.478;5.694;2023-04-29T02:20:11;9.40;99.90
46676;DHT22;32412;51.478;5.694;2023-04-29T02:22:37;9.40;99.90
46676;DHT22;32412;51.478;5.694;2023-04-29T02:25:03;9.50;99.90
46676;DHT22;32412;51.478;5.694;2023-04-29T02:27:29;9.50;99.90
46676;DHT22;32412;51.478;5.694;2023-04-29T02:29:55;9.50;99.90
46676;DHT22;32412;51.478;5.694;2023-04-29T02:32:20;9.50;99.90
46676;DHT22;32412;51.478;5.694;2023-04-29T02:34:46;9.50;99.90
46676;DHT22;32412;51.478;5.694;2023-04-29T02:37:12;9.50;99.90
46676;DHT22;32412;51.478;5.694;2023-04-29T02:39:38;9.40;99.90
46676;DHT22;32412;51.478;5.694;2023-04-29T02:42:03;9.40;99.90
46676;DHT22;32412;51.478;5.694;2023-04-29T02:44:29;9.40;99.90
46676;DHT22;32412;51.478;5.694;2023-04-29T02:46:55;9.40;99.90
46676;DHT22;32412;51.478;5.694;2023-04-29T02:49:22;9.40;99.90
46676;DHT22;32412;51.478;5.694;2023-04-29T02:51:48;9.40;99.90
46676;DHT22;32412;51.478;5.694;2023-04-29T02:54:17;9.30;99.90
46676;DHT22;32412;51.478;5.694;2023-04-29T02:56:42;9.30;99.90
46676;DHT22;32412;51.478;5.694;2023-04-29T02:59:08;9.30;99.90
46676;DHT22;32412;51.478;5.694;2023-04-29T03:01:35;9.30;99.90
46676;DHT22;32412;51.478;5.694;2023-04-29T03:04:03;9.30;99.90
46676;DHT22;32412;51.478;5.694;2023-04-29T03:06:28;9.20;99.90
46676;DHT22;32412;51.478;5.694;2023-04-29T03:08:54;9.20;99.90
46676;DHT22;32412;51.478;5.694;2023-04-29T03:11:20;9.20;99.90
46676;DHT22;32412;51.478;5.694;2023-04-29T03:13:49;9.20;99.90
46676;DHT22;32412;51.478;5.694;2023-04-29T03:16:14;9.30;99.90
46676;DHT22;32412;51.478;5.694;2023-04-29T03:18:42;9.30;99.90
46676;DHT22;32412;51.478;5.694;2023-04-29T03:21:07;9.30;99.90
46676;DHT22;32412;51.478;5.694;2023-04-29T03:23:33;9.30;99.90
46676;DHT22;32412;51.478;5.694;2023-04-29T03:25:59;9.30;99.90
46676;DHT22;32412;51.478;5.694;2023-04-29T03:28:26;9.30;99.90
46676;DHT22;32412;51.478;5.694;2023-04-29T03:30:51;9.30;99.90
46676;DHT22;32412;51.478;5.694;2023-04-29T03:33:17;9.30;99.90
46676;DHT22;32412;51.478;5.694;2023-04-29T03:35:43;9.30;99.90
46676;DHT22;32412;51.478;5.694;2023-04-29T03:38:10;9.30;99.90
46676;DHT22;32412;51.478;5.694;2023-04-29T03:40:36;9.30;99.90
46676;DHT22;32412;51.478;5.694;2023-04-29T03:43:02;9.30;99.90
46676;DHT22;32412;51.478;5.694;2023-04-29T03:45:28;9.30;99.90
46676;DHT22;32412;51.478;5.694;2023-04-29T03:47:54;9.20;99.90
46676;DHT22;32412;51.478;5.694;2023-04-29T03:50:20;9.20;99.90
46676;DHT22;32412;51.478;5.694;2023-04-29T03:52:46;9.20;99.90
46676;DHT22;32412;51.478;5.694;2023-04-29T03:55:11;9.20;99.90
46676;DHT22;32412;51.478;5.694;2023-04-29T03:57:37;9.10;99.90
46676;DHT22;32412;51.478;5.694;2023-04-29T04:00:04;9.20;99.90
46676;DHT22;32412;51.478;5.694;2023-04-29T04:02:30;9.20;99.90
46676;DHT22;32412;51.478;5.694;2023-04-29T04:04:55;9.20;99.90
46676;DHT22;32412;51.478;5.694;2023-04-29T04:07:23;9.10;99.90
46676;DHT22;32412;51.478;5.694;2023-04-29T04:09:49;9.10;99.90
46676;DHT22;32412;51.478;5.694;2023-04-29T04:12:14;9.10;99.90
46676;DHT22;32412;51.478;5.694;2023-04-29T04:14:40;9.10;99.90
46676;DHT22;32412;51.478;5.694;2023-04-29T04:17:06;9.10;99.90
46676;DHT22;32412;51.478;5.694;2023-04-29T04:19:32;9.10;99.90
46676;DHT22;32412;51.478;5.694;2023-04-29T04:21:58;9.20;99.90
46676;DHT22;32412;51.478;5.694;2023-04-29T04:24:23;9.10;99.90
46676;DHT22;32412;51.478;5.694;2023-04-29T04:26:49;9.20;99.90
46676;DHT22;32412;51.478;5.694;2023-04-29T04:29:15;9.10;99.90
46676;DHT22;32412;51.478;5.694;2023-04-29T04:31:41;9.10;99.90
46676;DHT22;32412;51.478;5.694;2023-04-29T04:34:06;9.10;99.90
46676;DHT22;32412;51.478;5.694;2023-04-29T04:36:32;9.10;99.90
46676;DHT22;32412;51.478;5.694;2023-04-29T04:38:58;9.20;99.90
46676;DHT22;32412;51.478;5.694;2023-04-29T04:41:23;9.10;99.90
46676;DHT22;32412;51.478;5.694;2023-04-29T04:43:50;9.10;99.90
46676;DHT22;32412;51.478;5.694;2023-04-29T04:46:16;9.10;99.90
46676;DHT22;32412;51.478;5.694;2023-04-29T04:48:42;9.10;99.90
46676;DHT22;32412;51.478;5.694;2023-04-29T04:53:34;9.10;99.90
46676;DHT22;32412;51.478;5.694;2023-04-29T04:56:00;9.10;99.90
46676;DHT22;32412;51.478;5.694;2023-04-29T04:58:26;9.10;99.90
46676;DHT22;32412;51.478;5.694;2023-04-29T05:00:52;9.10;99.90
46676;DHT22;32412;51.478;5.694;2023-04-29T05:03:18;9.10;99.90
46676;DHT22;32412;51.478;5.694;2023-04-29T05:05:43;9.10;99.90
46676;DHT22;32412;51.478;5.694;2023-04-29T05:08:09;9.10;99.90
46676;DHT22;32412;51.478;5.694;2023-04-29T05:10:38;9.20;99.90
46676;DHT22;32412;51.478;5.694;2023-04-29T05:13:03;9.20;99.90
46676;DHT22;32412;51.478;5.694;2023-04-29T05:15:29;9.20;99.90
46676;DHT22;32412;51.478;5.694;2023-04-29T05:17:55;9.10;99.90
46676;DHT22;32412;51.478;5.694;2023-04-29T05:20:21;9.20;99.90
46676;DHT22;32412;51.478;5.694;2023-04-29T05:22:46;9.20;99.90
46676;DHT22;32412;51.478;5.694;2023-04-29T05:25:12;9.20;99.90
46676;DHT22;32412;51.478;5.694;2023-04-29T05:27:38;9.20;99.90
46676;DHT22;32412;51.478;5.694;2023-04-29T05:30:04;9.20;99.90
46676;DHT22;32412;51.478;5.694;2023-04-29T05:32:30;9.30;99.90
46676;DHT22;32412;51.478;5.694;2023-04-29T05:34:56;9.30;99.90
46676;DHT22;32412;51.478;5.694;2023-04-29T05:37:21;9.30;99.90
46676;DHT22;32412;51.478;5.694;2023-04-29T05:39:47;9.30;99.90
46676;DHT22;32412;51.478;5.694;2023-04-29T05:42:13;9.30;99.90
46676;DHT22;32412;51.478;5.694;2023-04-29T05:44:38;9.30;99.90
46676;DHT22;32412;51.478;5.694;2023-04-29T05:47:04;9.30;99.90
46676;DHT22;32412;51.478;5.694;2023-04-29T05:49:30;9.30;99.90
46676;DHT22;32412;51.478;5.694;2023-04-29T05:51:56;9.30;99.90
46676;DHT22;32412;51.478;5.694;2023-04-29T05:54:21;9.30;99.90
46676;DHT22;32412;51.478;5.694;2023-04-29T05:56:47;9.30;99.90
46676;DHT22;32412;51.478;5.694;2023-04-29T05:59:13;9.30;99.90
46676;DHT22;32412;51.478;5.694;2023-04-29T06:01:39;9.30;99.90
46676;DHT22;32412;51.478;5.694;2023-04-29T06:04:04;9.30;99.90
46676;DHT22;32412;51.478;5.694;2023-04-29T06:06:30;9.40;99.90
46676;DHT22;32412;51.478;5.694;2023-04-29T06:08:56;9.40;99.90
46676;DHT22;32412;51.478;5.694;2023-04-29T06:11:22;9.40;99.90
46676;DHT22;32412;51.478;5.694;2023-04-29T06:13:47;9.40;99.90
46676;DHT22;32412;51.478;5.694;2023-04-29T06:16:13;9.40;99.90
46676;DHT22;32412;51.478;5.694;2023-04-29T06:18:42;9.40;99.90
46676;DHT22;32412;51.478;5.694;2023-04-29T06:21:07;9.40;99.90
46676;DHT22;32412;51.478;5.694;2023-04-29T06:23:33;9.40;99.90
46676;DHT22;32412;51.478;5.694;2023-04-29T06:25:59;9.40;99.90
46676;DHT22;32412;51.478;5.694;2023-04-29T06:28:25;9.40;99.90
46676;DHT22;32412;51.478;5.694;2023-04-29T06:30:50;9.40;99.90
46676;DHT22;32412;51.478;5.694;2023-04-29T06:33:16;9.50;99.90
46676;DHT22;32412;51.478;5.694;2023-04-29T06:35:43;9.50;99.90
46676;DHT22;32412;51.478;5.694;2023-04-29T06:38:08;9.50;99.90
46676;DHT22;32412;51.478;5.694;2023-04-29T06:40:34;9.50;99.90
46676;DHT22;32412;51.478;5.694;2023-04-29T06:43:00;9.50;99.90
46676;DHT22;32412;51.478;5.694;2023-04-29T06:45:26;9.50;99.90
46676;DHT22;32412;51.478;5.694;2023-04-29T06:47:52;9.50;99.90
46676;DHT22;32412;51.478;5.694;2023-04-29T06:50:18;9.40;99.90
46676;DHT22;32412;51.478;5.694;2023-04-29T06:52:44;9.40;99.90
46676;DHT22;32412;51.478;5.694;2023-04-29T06:55:10;9.50;99.90
46676;DHT22;32412;51.478;5.694;2023-04-29T06:57:36;9.50;99.90
46676;DHT22;32412;51.478;5.694;2023-04-29T07:00:03;9.50;99.90
46676;DHT22;32412;51.478;5.694;2023-04-29T07:02:29;9.60;99.90
46676;DHT22;32412;51.478;5.694;2023-04-29T07:04:54;9.70;99.90
46676;DHT22;32412;51.478;5.694;2023-04-29T07:07:20;9.80;99.90
46676;DHT22;32412;51.478;5.694;2023-04-29T07:09:46;9.90;99.90
46676;DHT22;32412;51.478;5.694;2023-04-29T07:12:13;10.00;99.90
46676;DHT22;32412;51.478;5.694;2023-04-29T07:14:38;9.90;99.90
46676;DHT22;32412;51.478;5.694;2023-04-29T07:17:05;9.90;99.90
46676;DHT22;32412;51.478;5.694;2023-04-29T07:19:31;10.00;99.90
46676;DHT22;32412;51.478;5.694;2023-04-29T07:21:56;10.20;99.90
46676;DHT22;32412;51.478;5.694;2023-04-29T07:24:22;10.20;99.90
46676;DHT22;32412;51.478;5.694;2023-04-29T07:26:48;10.30;99.90
46676;DHT22;32412;51.478;5.694;2023-04-29T07:29:14;10.20;99.90
46676;DHT22;32412;51.478;5.694;2023-04-29T07:31:40;10.30;99.90
46676;DHT22;32412;51.478;5.694;2023-04-29T07:34:06;10.40;99.90
46676;DHT22;32412;51.478;5.694;2023-04-29T07:36:31;10.50;99.90
46676;DHT22;32412;51.478;5.694;2023-04-29T07:38:57;10.50;99.90
46676;DHT22;32412;51.478;5.694;2023-04-29T07:41:23;10.60;99.90
46676;DHT22;32412;51.478;5.694;2023-04-29T07:43:49;10.70;99.90
46676;DHT22;32412;51.478;5.694;2023-04-29T07:46:15;10.80;99.90
46676;DHT22;32412;51.478;5.694;2023-04-29T07:48:42;11.00;99.90
46676;DHT22;32412;51.478;5.694;2023-04-29T07:51:13;11.20;99.90
46676;DHT22;32412;51.478;5.694;2023-04-29T07:53:40;11.40;99.90
46676;DHT22;32412;51.478;5.694;2023-04-29T07:56:06;11.50;99.90
46676;DHT22;32412;51.478;5.694;2023-04-29T07:58:32;11.60;99.90
46676;DHT22;32412;51.478;5.694;2023-04-29T08:01:08;11.60;99.90
46676;DHT22;32412;51.478;5.694;2023-04-29T08:03:35;11.60;99.90
46676;DHT22;32412;51.478;5.694;2023-04-29T08:06:02;11.50;99.90
46676;DHT22;32412;51.478;5.694;2023-04-29T08:08:31;11.70;99.90
46676;DHT22;32412;51.478;5.694;2023-04-29T08:10:57;11.60;99.90
46676;DHT22;32412;51.478;5.694;2023-04-29T08:13:23;11.60;99.90
46676;DHT22;32412;51.478;5.694;2023-04-29T08:15:49;11.70;99.90
46676;DHT22;32412;51.478;5.694;2023-04-29T08:18:15;11.60;99.90
46676;DHT22;32412;51.478;5.694;2023-04-29T08:20:41;11.50;99.90
46676;DHT22;32412;51.478;5.694;2023-04-29T08:23:07;11.50;99.90
46676;DHT22;32412;51.478;5.694;2023-04-29T08:25:33;11.50;99.90
46676;DHT22;32412;51.478;5.694;2023-04-29T08:27:58;11.60;99.90
46676;DHT22;32412;51.478;5.694;2023-04-29T08:30:24;11.70;99.90
46676;DHT22;32412;51.478;5.694;2023-04-29T08:32:50;11.90;99.90
46676;DHT22;32412;51.478;5.694;2023-04-29T08:35:16;12.00;99.90
46676;DHT22;32412;51.478;5.694;2023-04-29T08:37:49;12.10;99.90
46676;DHT22;32412;51.478;5.694;2023-04-29T08:40:14;12.40;99.90
46676;DHT22;32412;51.478;5.694;2023-04-29T08:42:42;12.40;99.90
46676;DHT22;32412;51.478;5.694;2023-04-29T08:45:09;12.40;99.90
46676;DHT22;32412;51.478;5.694;2023-04-29T08:47:35;12.30;99.90
46676;DHT22;32412;51.478;5.694;2023-04-29T08:50:04;12.20;99.90
46676;DHT22;32412;51.478;5.694;2023-04-29T08:52:31;12.10;99.90
46676;DHT22;32412;51.478;5.694;2023-04-29T08:55:00;12.20;99.90
46676;DHT22;32412;51.478;5.694;2023-04-29T08:57:35;12.30;99.90
46676;DHT22;32412;51.478;5.694;2023-04-29T09:00:08;12.60;99.90
46676;DHT22;32412;51.478;5.694;2023-04-29T09:02:40;12.90;99.90
46676;DHT22;32412;51.478;5.694;2023-04-29T09:05:08;12.90;99.90
46676;DHT22;32412;51.478;5.694;2023-04-29T09:07:37;13.10;99.90
46676;DHT22;32412;51.478;5.694;2023-04-29T09:10:06;12.90;99.90
46676;DHT22;32412;51.478;5.694;2023-04-29T09:12:33;12.90;99.90
46676;DHT22;32412;51.478;5.694;2023-04-29T09:15:00;12.90;99.90
46676;DHT22;32412;51.478;5.694;2023-04-29T09:17:45;12.90;99.90
46676;DHT22;32412;51.478;5.694;2023-04-29T09:23:06;13.10;99.90
46676;DHT22;32412;51.478;5.694;2023-04-29T09:25:32;13.10;99.90
46676;DHT22;32412;51.478;5.694;2023-04-29T09:27:58;13.00;99.90
46676;DHT22;32412;51.478;5.694;2023-04-29T09:30:23;12.80;99.90
46676;DHT22;32412;51.478;5.694;2023-04-29T09:33:08;13.00;99.90
46676;DHT22;32412;51.478;5.694;2023-04-29T09:35:34;13.20;99.90
46676;DHT22;32412;51.478;5.694;2023-04-29T09:38:14;13.40;99.90
46676;DHT22;32412;51.478;5.694;2023-04-29T09:40:44;13.50;99.90
46676;DHT22;32412;51.478;5.694;2023-04-29T09:43:15;13.60;99.90
46676;DHT22;32412;51.478;5.694;2023-04-29T09:45:46;13.70;99.90
46676;DHT22;32412;51.478;5.694;2023-04-29T09:48:13;13.80;99.90
46676;DHT22;32412;51.478;5.694;2023-04-29T09:50:43;14.10;99.90
46676;DHT22;32412;51.478;5.694;2023-04-29T09:53:10;15.00;99.90
46676;DHT22;32412;51.478;5.694;2023-04-29T09:56:00;15.20;99.90
46676;DHT22;32412;51.478;5.694;2023-04-29T09:58:31;14.90;99.90
46676;DHT22;32412;51.478;5.694;2023-04-29T10:00:58;14.40;99.90
46676;DHT22;32412;51.478;5.694;2023-04-29T10:03:32;14.40;99.90
46676;DHT22;32412;51.478;5.694;2023-04-29T10:06:02;14.30;99.90
46676;DHT22;32412;51.478;5.694;2023-04-29T10:08:29;14.20;99.90
46676;DHT22;32412;51.478;5.694;2023-04-29T10:10:59;14.00;99.90
46676;DHT22;32412;51.478;5.694;2023-04-29T10:13:25;13.80;99.90
46676;DHT22;32412;51.478;5.694;2023-04-29T10:16:03;13.70;99.90
46676;DHT22;32412;51.478;5.694;2023-04-29T10:18:36;13.80;99.90
46676;DHT22;32412;51.478;5.694;2023-04-29T10:21:07;14.10;99.90
46676;DHT22;32412;51.478;5.694;2023-04-29T10:23:36;14.40;99.90
46676;DHT22;32412;51.478;5.694;2023-04-29T10:26:03;14.90;99.90
46676;DHT22;32412;51.478;5.694;2023-04-29T10:28:31;15.90;99.90
46676;DHT22;32412;51.478;5.694;2023-04-29T10:31:00;16.20;99.90
46676;DHT22;32412;51.478;5.694;2023-04-29T10:33:32;16.60;99.90
46676;DHT22;32412;51.478;5.694;2023-04-29T10:36:00;16.70;99.90
46676;DHT22;32412;51.478;5.694;2023-04-29T10:38:33;16.90;99.90
46676;DHT22;32412;51.478;5.694;2023-04-29T10:41:03;16.80;99.90
46676;DHT22;32412;51.478;5.694;2023-04-29T10:43:32;16.60;99.90
46676;DHT22;32412;51.478;5.694;2023-04-29T10:46:24;16.10;99.90
46676;DHT22;32412;51.478;5.694;2023-04-29T10:49:00;15.60;99.90
46676;DHT22;32412;51.478;5.694;2023-04-29T10:51:28;15.20;99.90
46676;DHT22;32412;51.478;5.694;2023-04-29T10:54:15;14.90;99.90
46676;DHT22;32412;51.478;5.694;2023-04-29T10:56:51;14.90;99.90
46676;DHT22;32412;51.478;5.694;2023-04-29T11:01:53;15.60;99.90
46676;DHT22;32412;51.478;5.694;2023-04-29T11:04:21;15.90;99.90
46676;DHT22;32412;51.478;5.694;2023-04-29T11:06:56;16.10;99.90
46676;DHT22;32412;51.478;5.694;2023-04-29T11:09:26;15.80;99.90
46676;DHT22;32412;51.478;5.694;2023-04-29T11:11:55;15.70;99.90
46676;DHT22;32412;51.478;5.694;2023-04-29T11:14:50;15.50;99.90
46676;DHT22;32412;51.478;5.694;2023-04-29T11:17:17;15.60;99.90
46676;DHT22;32412;51.478;5.694;2023-04-29T11:22:13;15.50;99.90
46676;DHT22;32412;51.478;5.694;2023-04-29T11:27:18;15.40;99.90
46676;DHT22;32412;51.478;5.694;2023-04-29T11:29:45;15.20;99.90
46676;DHT22;32412;51.478;5.694;2023-04-29T11:32:14;15.20;99.90
46676;DHT22;32412;51.478;5.694;2023-04-29T11:34:43;15.20;99.90
46676;DHT22;32412;51.478;5.694;2023-04-29T11:37:09;15.20;99.90
46676;DHT22;32412;51.478;5.694;2023-04-29T11:39:35;15.30;99.90
46676;DHT22;32412;51.478;5.694;2023-04-29T11:42:05;15.40;99.90
46676;DHT22;32412;51.478;5.694;2023-04-29T11:44:33;15.40;99.90
46676;DHT22;32412;51.478;5.694;2023-04-29T11:47:06;15.00;99.90
46676;DHT22;32412;51.478;5.694;2023-04-29T11:49:35;14.90;99.90
46676;DHT22;32412;51.478;5.694;2023-04-29T11:52:02;14.70;99.90
46676;DHT22;32412;51.478;5.694;2023-04-29T11:54:29;14.60;99.90
46676;DHT22;32412;51.478;5.694;2023-04-29T11:56:56;14.60;99.90
46676;DHT22;32412;51.478;5.694;2023-04-29T11:59:22;14.90;99.90
46676;DHT22;32412;51.478;5.694;2023-04-29T12:01:49;15.00;99.90
46676;DHT22;32412;51.478;5.694;2023-04-29T12:04:15;15.30;99.90
46676;DHT22;32412;51.478;5.694;2023-04-29T12:06:42;15.30;99.90
46676;DHT22;32412;51.478;5.694;2023-04-29T12:09:08;15.30;99.90
46676;DHT22;32412;51.478;5.694;2023-04-29T12:11:35;15.50;99.90
46676;DHT22;32412;51.478;5.694;2023-04-29T12:14:02;15.40;99.90
46676;DHT22;32412;51.478;5.694;2023-04-29T12:16:31;15.30;99.90
46676;DHT22;32412;51.478;5.694;2023-04-29T12:18:58;15.30;99.90
46676;DHT22;32412;51.478;5.694;2023-04-29T12:21:30;15.50;99.90
46676;DHT22;32412;51.478;5.694;2023-04-29T12:23:58;15.80;99.90
46676;DHT22;32412;51.478;5.694;2023-04-29T12:26:27;16.00;99.90
46676;DHT22;32412;51.478;5.694;2023-04-29T12:28:53;16.10;99.90
46676;DHT22;32412;51.478;5.694;2023-04-29T12:31:20;16.10;99.90
46676;DHT22;32412;51.478;5.694;2023-04-29T12:33:45;15.80;99.90
46676;DHT22;32412;51.478;5.694;2023-04-29T12:36:16;15.70;99.90
46676;DHT22;32412;51.478;5.694;2023-04-29T12:38:42;15.50;99.90
46676;DHT22;32412;51.478;5.694;2023-04-29T12:41:08;15.30;99.90
46676;DHT22;32412;51.478;5.694;2023-04-29T12:43:36;15.20;99.90
46676;DHT22;32412;51.478;5.694;2023-04-29T12:46:03;15.30;99.90
46676;DHT22;32412;51.478;5.694;2023-04-29T12:48:30;15.40;99.90
46676;DHT22;32412;51.478;5.694;2023-04-29T12:51:00;15.30;99.90
46676;DHT22;32412;51.478;5.694;2023-04-29T12:53:28;15.20;99.90
46676;DHT22;32412;51.478;5.694;2023-04-29T12:55:54;15.10;99.90
46676;DHT22;32412;51.478;5.694;2023-04-29T12:58:19;15.20;99.90
46676;DHT22;32412;51.478;5.694;2023-04-29T13:00:45;15.40;99.90
46676;DHT22;32412;51.478;5.694;2023-04-29T13:03:11;15.50;99.90
46676;DHT22;32412;51.478;5.694;2023-04-29T13:05:37;15.50;99.90
46676;DHT22;32412;51.478;5.694;2023-04-29T13:08:02;15.50;99.90
46676;DHT22;32412;51.478;5.694;2023-04-29T13:10:31;15.60;99.90
46676;DHT22;32412;51.478;5.694;2023-04-29T13:12:58;15.80;99.90
46676;DHT22;32412;51.478;5.694;2023-04-29T13:15:24;15.90;99.90
46676;DHT22;32412;51.478;5.694;2023-04-29T13:17:50;16.20;99.90
46676;DHT22;32412;51.478;5.694;2023-04-29T13:20:16;16.40;99.90
46676;DHT22;32412;51.478;5.694;2023-04-29T13:22:42;16.60;99.90
46676;DHT22;32412;51.478;5.694;2023-04-29T13:25:09;16.80;99.90
46676;DHT22;32412;51.478;5.694;2023-04-29T13:27:39;17.00;99.90
46676;DHT22;32412;51.478;5.694;2023-04-29T13:30:06;17.10;99.90
46676;DHT22;32412;51.478;5.694;2023-04-29T13:32:32;17.20;99.90
46676;DHT22;32412;51.478;5.694;2023-04-29T13:35:01;17.30;99.90
46676;DHT22;32412;51.478;5.694;2023-04-29T13:37:28;17.20;99.90
46676;DHT22;32412;51.478;5.694;2023-04-29T13:39:54;16.90;99.90
46676;DHT22;32412;51.478;5.694;2023-04-29T13:42:20;17.00;99.90
46676;DHT22;32412;51.478;5.694;2023-04-29T13:44:48;17.10;99.90
46676;DHT22;32412;51.478;5.694;2023-04-29T13:47:15;17.20;99.90
46676;DHT22;32412;51.478;5.694;2023-04-29T13:49:42;17.30;99.90
46676;DHT22;32412;51.478;5.694;2023-04-29T13:52:11;16.90;99.90
46676;DHT22;32412;51.478;5.694;2023-04-29T13:54:37;16.70;99.90
46676;DHT22;32412;51.478;5.694;2023-04-29T13:57:03;16.60;99.90
46676;DHT22;32412;51.478;5.694;2023-04-29T13:59:34;16.80;99.90
46676;DHT22;32412;51.478;5.694;2023-04-29T14:02:04;16.90;99.90
46676;DHT22;32412;51.478;5.694;2023-04-29T14:04:30;17.20;99.90
46676;DHT22;32412;51.478;5.694;2023-04-29T14:06:58;17.00;99.90
46676;DHT22;32412;51.478;5.694;2023-04-29T14:09:24;17.30;99.90
46676;DHT22;32412;51.478;5.694;2023-04-29T14:11:50;17.40;99.90
46676;DHT22;32412;51.478;5.694;2023-04-29T14:14:16;17.70;99.90
46676;DHT22;32412;51.478;5.694;2023-04-29T14:16:42;17.90;99.90
46676;DHT22;32412;51.478;5.694;2023-04-29T14:19:08;18.60;99.90
46676;DHT22;32412;51.478;5.694;2023-04-29T14:21:36;18.50;99.90
46676;DHT22;32412;51.478;5.694;2023-04-29T14:24:02;18.40;99.90
46676;DHT22;32412;51.478;5.694;2023-04-29T14:26:28;18.00;99.90
46676;DHT22;32412;51.478;5.694;2023-04-29T14:28:55;17.70;99.90
46676;DHT22;32412;51.478;5.694;2023-04-29T14:31:33;17.50;99.90
46676;DHT22;32412;51.478;5.694;2023-04-29T14:34:02;17.40;99.90
46676;DHT22;32412;51.478;5.694;2023-04-29T14:36:28;17.40;99.90
46676;DHT22;32412;51.478;5.694;2023-04-29T14:38:57;17.40;99.90
46676;DHT22;32412;51.478;5.694;2023-04-29T14:41:23;17.30;99.90
46676;DHT22;32412;51.478;5.694;2023-04-29T14:43:49;17.10;99.90
46676;DHT22;32412;51.478;5.694;2023-04-29T14:46:15;17.00;99.90
46676;DHT22;32412;51.478;5.694;2023-04-29T14:48:41;16.70;99.90
46676;DHT22;32412;51.478;5.694;2023-04-29T14:51:07;16.80;99.90
46676;DHT22;32412;51.478;5.694;2023-04-29T14:53:33;17.00;99.90
46676;DHT22;32412;51.478;5.694;2023-04-29T14:55:59;17.10;99.90
46676;DHT22;32412;51.478;5.694;2023-04-29T14:58:24;17.20;99.90
46676;DHT22;32412;51.478;5.694;2023-04-29T15:00:50;17.40;99.90
46676;DHT22;32412;51.478;5.694;2023-04-29T15:03:17;17.20;99.90
46676;DHT22;32412;51.478;5.694;2023-04-29T15:05:42;17.20;99.90
46676;DHT22;32412;51.478;5.694;2023-04-29T15:08:09;17.30;99.90
46676;DHT22;32412;51.478;5.694;2023-04-29T15:10:35;17.30;99.90
46676;DHT22;32412;51.478;5.694;2023-04-29T15:13:01;17.50;99.90
46676;DHT22;32412;51.478;5.694;2023-04-29T15:15:27;17.70;99.90
46676;DHT22;32412;51.478;5.694;2023-04-29T15:17:53;17.60;99.90
46676;DHT22;32412;51.478;5.694;2023-04-29T15:20:19;17.60;99.90
46676;DHT22;32412;51.478;5.694;2023-04-29T15:22:45;17.50;99.90
46676;DHT22;32412;51.478;5.694;2023-04-29T15:25:13;17.10;99.90
46676;DHT22;32412;51.478;5.694;2023-04-29T15:27:38;17.10;99.90
46676;DHT22;32412;51.478;5.694;2023-04-29T15:30:04;17.20;99.90
46676;DHT22;32412;51.478;5.694;2023-04-29T15:32:31;17.50;99.90
46676;DHT22;32412;51.478;5.694;2023-04-29T15:35:01;17.40;99.90
46676;DHT22;32412;51.478;5.694;2023-04-29T15:37:28;17.40;99.90
46676;DHT22;32412;51.478;5.694;2023-04-29T15:39:55;17.20;99.90
46676;DHT22;32412;51.478;5.694;2023-04-29T15:42:21;17.40;99.90
46676;DHT22;32412;51.478;5.694;2023-04-29T15:44:47;17.70;99.90
46676;DHT22;32412;51.478;5.694;2023-04-29T15:47:12;17.90;99.90
46676;DHT22;32412;51.478;5.694;2023-04-29T15:49:38;18.10;99.90
46676;DHT22;32412;51.478;5.694;2023-04-29T15:52:04;18.20;99.90
46676;DHT22;32412;51.478;5.694;2023-04-29T15:54:30;18.00;99.90
46676;DHT22;32412;51.478;5.694;2023-04-29T15:56:56;17.90;99.90
46676;DHT22;32412;51.478;5.694;2023-04-29T15:59:21;18.20;99.90